sensor_id;sensor_type;location;lat;lon;timestamp;pressure;altitude;pressure_sealevel;temperature;humidity
18167;BME280;9208;42.688;23.404;2023-03-11T00:00:10;93686.06;;;12.04;100.00
18167;BME280;9208;42.688;23.404;2023-03-11T00:02:38;93692.41;;;11.99;100.00
18167;BME280;9208;42.688;23.404;2023-03-11T00:05:05;93714.16;;;11.97;100.00
18167;BME280;9208;42.688;23.404;2023-03-11T00:07:31;93711.09;;;12.00;100.00
18167;BME280;9208;42.688;23.404;2023-03-11T00:09:56;93730.13;;;11.98;100.00
18167;BME280;9208;42.688;23.404;2023-03-11T00:12:23;93728.84;;;11.99;100.00
18167;BME280;9208;42.688;23.404;2023-03-11T00:14:48;93718.06;;;12.01;100.00
18167;BME280;9208;42.688;23.404;2023-03-11T00:17:13;93701.91;;;11.98;100.00
18167;BME280;9208;42.688;23.404;2023-03-11T00:19:39;93705.91;;;11.97;100.00
18167;BME280;9208;42.688;23.404;2023-03-11T00:22:04;93699.06;;;11.90;100.00
18167;BME280;9208;42.688;23.404;2023-03-11T00:24:29;93692.09;;;11.89;100.00
18167;BME280;9208;42.688;23.404;2023-03-11T00:26:55;93683.31;;;11.91;100.00
18167;BME280;9208;42.688;23.404;2023-03-11T00:29:23;93688.69;;;11.83;100.00
18167;BME280;9208;42.688;23.404;2023-03-11T00:31:48;93689.44;;;11.84;100.00
18167;BME280;9208;42.688;23.404;2023-03-11T00:34:14;93697.34;;;11.87;100.00
18167;BME280;9208;42.688;23.404;2023-03-11T00:36:39;93686.38;;;11.87;100.00
18167;BME280;9208;42.688;23.404;2023-03-11T00:39:05;93683.44;;;11.85;100.00
18167;BME280;9208;42.688;23.404;2023-03-11T00:41:35;93690.41;;;11.86;100.00
18167;BME280;9208;42.688;23.404;2023-03-11T00:44:00;93680.16;;;11.87;100.00
18167;BME280;9208;42.688;23.404;2023-03-11T00:46:26;93681.41;;;11.86;100.00
18167;BME280;9208;42.688;23.404;2023-03-11T00:48:53;93679.75;;;11.83;100.00
18167;BME280;9208;42.688;23.404;2023-03-11T00:51:19;93678.03;;;11.80;100.00
18167;BME280;9208;42.688;23.404;2023-03-11T00:53:44;93672.56;;;11.80;100.00
18167;BME280;9208;42.688;23.404;2023-03-11T00:56:12;93667.25;;;11.82;100.00
18167;BME280;9208;42.688;23.404;2023-03-11T00:58:45;93659.66;;;11.75;100.00
18167;BME280;9208;42.688;23.404;2023-03-11T01:01:16;93660.63;;;11.77;100.00
18167;BME280;9208;42.688;23.404;2023-03-11T01:03:42;93648.06;;;11.69;100.00
18167;BME280;9208;42.688;23.404;2023-03-11T01:06:08;93644.78;;;11.70;100.00
18167;BME280;9208;42.688;23.404;2023-03-11T01:08:33;93646.28;;;11.71;100.00
18167;BME280;9208;42.688;23.404;2023-03-11T01:11:00;93643.63;;;11.66;100.00
18167;BME280;9208;42.688;23.404;2023-03-11T01:13:27;93639.59;;;11.67;100.00
18167;BME280;9208;42.688;23.404;2023-03-11T01:15:53;93635.59;;;11.68;100.00
18167;BME280;9208;42.688;23.404;2023-03-11T01:18:18;93637.72;;;11.62;100.00
18167;BME280;9208;42.688;23.404;2023-03-11T01:20:44;93634.31;;;11.56;100.00
18167;BME280;9208;42.688;23.404;2023-03-11T01:23:11;93630.91;;;11.50;100.00
18167;BME280;9208;42.688;23.404;2023-03-11T01:25:36;93622.69;;;11.50;100.00
18167;BME280;9208;42.688;23.404;2023-03-11T01:28:06;93612.56;;;11.58;100.00
18167;BME280;9208;42.688;23.404;2023-03-11T01:30:33;93598.84;;;11.58;100.00
18167;BME280;9208;42.688;23.404;2023-03-11T01:33:00;93603.91;;;11.54;100.00
18167;BME280;9208;42.688;23.404;2023-03-11T01:35:27;93592.19;;;11.40;100.00
18167;BME280;9208;42.688;23.404;2023-03-11T01:37:54;93591.53;;;11.34;100.00
18167;BME280;9208;42.688;23.404;2023-03-11T01:40:25;93589.66;;;11.42;100.00
18167;BME280;9208;42.688;23.404;2023-03-11T01:42:51;93573.81;;;11.48;100.00
18167;BME280;9208;42.688;23.404;2023-03-11T01:48:10;93569.06;;;11.49;100.00
18167;BME280;9208;42.688;23.404;2023-03-11T01:50:39;93560.84;;;11.49;100.00
18167;BME280;9208;42.688;23.404;2023-03-11T01:53:06;93552.84;;;11.51;100.00
18167;BME280;9208;42.688;23.404;2023-03-11T01:55:32;93558.53;;;11.53;100.00
18167;BME280;9208;42.688;23.404;2023-03-11T01:58:00;93571.19;;;11.56;100.00
18167;BME280;9208;42.688;23.404;2023-03-11T02:00:26;93585.22;;;11.52;100.00
18167;BME280;9208;42.688;23.404;2023-03-11T02:02:54;93584.50;;;11.39;100.00
18167;BME280;9208;42.688;23.404;2023-03-11T02:05:22;93601.13;;;11.28;100.00
18167;BME280;9208;42.688;23.404;2023-03-11T02:07:52;93607.78;;;11.19;100.00
18167;BME280;9208;42.688;23.404;2023-03-11T02:10:18;93599.88;;;11.16;100.00
18167;BME280;9208;42.688;23.404;2023-03-11T02:12:44;93605.34;;;11.16;100.00
18167;BME280;9208;42.688;23.404;2023-03-11T02:15:12;93607.47;;;11.23;100.00
18167;BME280;9208;42.688;23.404;2023-03-11T02:17:39;93617.28;;;11.18;100.00
18167;BME280;9208;42.688;23.404;2023-03-11T02:20:29;93615.69;;;11.23;100.00
18167;BME280;9208;42.688;23.404;2023-03-11T02:22:59;93623.19;;;11.22;100.00
18167;BME280;9208;42.688;23.404;2023-03-11T02:28:11;93619.38;;;11.25;100.00
18167;BME280;9208;42.688;23.404;2023-03-11T02:30:42;93618.34;;;11.28;100.00
18167;BME280;9208;42.688;23.404;2023-03-11T02:33:09;93623.91;;;11.23;100.00
18167;BME280;9208;42.688;23.404;2023-03-11T02:35:35;93624.03;;;11.17;100.00
18167;BME280;9208;42.688;23.404;2023-03-11T02:38:00;93617.59;;;11.15;100.00
18167;BME280;9208;42.688;23.404;2023-03-11T02:42:56;93613.47;;;11.08;100.00
18167;BME280;9208;42.688;23.404;2023-03-11T02:45:24;93616.75;;;11.07;100.00
18167;BME280;9208;42.688;23.404;2023-03-11T02:47:51;93615.16;;;11.11;100.00
18167;BME280;9208;42.688;23.404;2023-03-11T02:50:19;93620.63;;;11.11;100.00
18167;BME280;9208;42.688;23.404;2023-03-11T02:52:48;93624.75;;;11.18;100.00
18167;BME280;9208;42.688;23.404;2023-03-11T02:55:14;93635.53;;;11.16;100.00
18167;BME280;9208;42.688;23.404;2023-03-11T02:57:42;93638.28;;;11.16;100.00
18167;BME280;9208;42.688;23.404;2023-03-11T03:00:09;93624.44;;;11.08;100.00
18167;BME280;9208;42.688;23.404;2023-03-11T03:02:38;93633.81;;;11.13;100.00
18167;BME280;9208;42.688;23.404;2023-03-11T03:05:04;93644.59;;;11.11;100.00
18167;BME280;9208;42.688;23.404;2023-03-11T03:07:30;93649.00;;;11.14;100.00
18167;BME280;9208;42.688;23.404;2023-03-11T03:09:56;93639.41;;;11.07;100.00
18167;BME280;9208;42.688;23.404;2023-03-11T03:12:21;93637.19;;;11.06;100.00
18167;BME280;9208;42.688;23.404;2023-03-11T03:14:46;93645.00;;;11.02;100.00
18167;BME280;9208;42.688;23.404;2023-03-11T03:17:12;93641.59;;;10.96;100.00
18167;BME280;9208;42.688;23.404;2023-03-11T03:19:37;93637.81;;;10.99;100.00
18167;BME280;9208;42.688;23.404;2023-03-11T03:22:03;93643.09;;;10.97;100.00
18167;BME280;9208;42.688;23.404;2023-03-11T03:24:28;93634.16;;;10.78;100.00
18167;BME280;9208;42.688;23.404;2023-03-11T03:26:53;93636.50;;;10.87;100.00
18167;BME280;9208;42.688;23.404;2023-03-11T03:29:19;93633.34;;;10.96;100.00
18167;BME280;9208;42.688;23.404;2023-03-11T03:31:44;93638.22;;;11.03;100.00
18167;BME280;9208;42.688;23.404;2023-03-11T03:34:10;93645.09;;;11.09;100.00
18167;BME280;9208;42.688;23.404;2023-03-11T03:36:35;93640.34;;;11.10;100.00
18167;BME280;9208;42.688;23.404;2023-03-11T03:39:01;93643.84;;;11.10;100.00
18167;BME280;9208;42.688;23.404;2023-03-11T03:41:26;93637.94;;;11.19;100.00
18167;BME280;9208;42.688;23.404;2023-03-11T03:43:52;93633.72;;;11.18;100.00
18167;BME280;9208;42.688;23.404;2023-03-11T03:46:19;93633.50;;;11.16;100.00
18167;BME280;9208;42.688;23.404;2023-03-11T03:48:45;93629.81;;;11.14;100.00
18167;BME280;9208;42.688;23.404;2023-03-11T03:51:12;93636.78;;;11.15;100.00
18167;BME280;9208;42.688;23.404;2023-03-11T03:53:38;93627.06;;;11.14;100.00
18167;BME280;9208;42.688;23.404;2023-03-11T03:56:08;93635.19;;;11.06;100.00
18167;BME280;9208;42.688;23.404;2023-03-11T03:58:34;93626.88;;;11.12;100.00
18167;BME280;9208;42.688;23.404;2023-03-11T04:01:00;93622.84;;;11.13;100.00
18167;BME280;9208;42.688;23.404;2023-03-11T04:03:27;93624.25;;;11.19;100.00
18167;BME280;9208;42.688;23.404;2023-03-11T04:05:52;93635.13;;;11.25;100.00
18167;BME280;9208;42.688;23.404;2023-03-11T04:08:18;93623.72;;;11.21;100.00
18167;BME280;9208;42.688;23.404;2023-03-11T04:10:44;93627.63;;;11.25;100.00
18167;BME280;9208;42.688;23.404;2023-03-11T04:13:09;93628.88;;;11.24;100.00
18167;BME280;9208;42.688;23.404;2023-03-11T04:15:37;93621.00;;;11.34;100.00
18167;BME280;9208;42.688;23.404;2023-03-11T04:18:03;93623.75;;;11.34;100.00
18167;BME280;9208;42.688;23.404;2023-03-11T04:20:28;93625.09;;;11.27;100.00
18167;BME280;9208;42.688;23.404;2023-03-11T04:22:53;93619.81;;;11.29;100.00
18167;BME280;9208;42.688;23.404;2023-03-11T04:25:19;93625.63;;;11.26;100.00
18167;BME280;9208;42.688;23.404;2023-03-11T04:27:44;93630.16;;;11.23;100.00
18167;BME280;9208;42.688;23.404;2023-03-11T04:30:14;93632.47;;;11.19;100.00
18167;BME280;9208;42.688;23.404;2023-03-11T04:32:39;93630.75;;;11.16;100.00
18167;BME280;9208;42.688;23.404;2023-03-11T04:35:05;93627.59;;;11.12;100.00
18167;BME280;9208;42.688;23.404;2023-03-11T04:37:31;93635.69;;;11.05;100.00
18167;BME280;9208;42.688;23.404;2023-03-11T04:39:57;93626.22;;;11.06;100.00
18167;BME280;9208;42.688;23.404;2023-03-11T04:42:22;93631.59;;;11.11;100.00
18167;BME280;9208;42.688;23.404;2023-03-11T04:44:48;93637.53;;;11.15;100.00
18167;BME280;9208;42.688;23.404;2023-03-11T04:47:13;93634.06;;;11.15;100.00
18167;BME280;9208;42.688;23.404;2023-03-11T04:49:39;93626.53;;;11.15;100.00
18167;BME280;9208;42.688;23.404;2023-03-11T04:52:07;93626.97;;;11.19;100.00
18167;BME280;9208;42.688;23.404;2023-03-11T04:54:32;93631.94;;;11.21;100.00
18167;BME280;9208;42.688;23.404;2023-03-11T04:56:58;93640.06;;;11.13;100.00
18167;BME280;9208;42.688;23.404;2023-03-11T04:59:23;93643.31;;;11.12;100.00
18167;BME280;9208;42.688;23.404;2023-03-11T05:01:49;93648.28;;;11.13;100.00
18167;BME280;9208;42.688;23.404;2023-03-11T05:04:14;93646.06;;;11.12;100.00
18167;BME280;9208;42.688;23.404;2023-03-11T05:06:39;93649.88;;;11.22;100.00
18167;BME280;9208;42.688;23.404;2023-03-11T05:09:05;93646.19;;;11.19;100.00
18167;BME280;9208;42.688;23.404;2023-03-11T05:11:30;93650.63;;;11.22;100.00
18167;BME280;9208;42.688;23.404;2023-03-11T05:13:59;93656.94;;;11.17;100.00
18167;BME280;9208;42.688;23.404;2023-03-11T05:16:24;93653.44;;;11.17;100.00
18167;BME280;9208;42.688;23.404;2023-03-11T05:18:49;93658.09;;;11.22;100.00
18167;BME280;9208;42.688;23.404;2023-03-11T05:21:15;93671.06;;;11.21;100.00
18167;BME280;9208;42.688;23.404;2023-03-11T05:23:40;93672.03;;;11.24;100.00
18167;BME280;9208;42.688;23.404;2023-03-11T05:26:06;93674.47;;;11.27;100.00
18167;BME280;9208;42.688;23.404;2023-03-11T05:28:31;93679.00;;;11.25;100.00
18167;BME280;9208;42.688;23.404;2023-03-11T05:30:57;93686.16;;;11.28;100.00
18167;BME280;9208;42.688;23.404;2023-03-11T05:33:22;93679.13;;;11.32;100.00
18167;BME280;9208;42.688;23.404;2023-03-11T05:35:47;93686.31;;;11.35;100.00
18167;BME280;9208;42.688;23.404;2023-03-11T05:38:13;93699.19;;;11.40;100.00
18167;BME280;9208;42.688;23.404;2023-03-11T05:40:38;93700.34;;;11.45;100.00
18167;BME280;9208;42.688;23.404;2023-03-11T05:43:04;93714.59;;;11.43;100.00
18167;BME280;9208;42.688;23.404;2023-03-11T05:45:29;93710.28;;;11.48;100.00
18167;BME280;9208;42.688;23.404;2023-03-11T05:47:54;93717.75;;;11.47;100.00
18167;BME280;9208;42.688;23.404;2023-03-11T05:50:20;93716.28;;;11.46;100.00
18167;BME280;9208;42.688;23.404;2023-03-11T05:52:45;93710.16;;;11.40;100.00
18167;BME280;9208;42.688;23.404;2023-03-11T05:55:11;93710.75;;;11.33;100.00
18167;BME280;9208;42.688;23.404;2023-03-11T05:57:37;93712.91;;;11.40;100.00
18167;BME280;9208;42.688;23.404;2023-03-11T06:00:07;93719.22;;;11.35;100.00
18167;BME280;9208;42.688;23.404;2023-03-11T06:02:39;93725.00;;;11.32;100.00
18167;BME280;9208;42.688;23.404;2023-03-11T06:05:06;93731.31;;;11.27;100.00
18167;BME280;9208;42.688;23.404;2023-03-11T06:07:33;93740.25;;;11.14;100.00
18167;BME280;9208;42.688;23.404;2023-03-11T06:09:59;93740.91;;;11.20;100.00
18167;BME280;9208;42.688;23.404;2023-03-11T06:12:24;93737.44;;;11.20;100.00
18167;BME280;9208;42.688;23.404;2023-03-11T06:14:52;93730.88;;;11.23;100.00
18167;BME280;9208;42.688;23.404;2023-03-11T06:17:18;93735.34;;;11.26;100.00
18167;BME280;9208;42.688;23.404;2023-03-11T06:19:43;93730.16;;;11.22;100.00
18167;BME280;9208;42.688;23.404;2023-03-11T06:22:08;93735.47;;;11.33;100.00
18167;BME280;9208;42.688;23.404;2023-03-11T06:24:35;93739.53;;;11.27;100.00
18167;BME280;9208;42.688;23.404;2023-03-11T06:27:03;93737.47;;;11.33;100.00
18167;BME280;9208;42.688;23.404;2023-03-11T06:29:29;93735.34;;;11.26;100.00
18167;BME280;9208;42.688;23.404;2023-03-11T06:31:54;93736.84;;;11.40;100.00
18167;BME280;9208;42.688;23.404;2023-03-11T06:34:20;93735.81;;;11.43;100.00
18167;BME280;9208;42.688;23.404;2023-03-11T06:36:45;93736.75;;;11.45;100.00
18167;BME280;9208;42.688;23.404;2023-03-11T06:39:12;93734.03;;;11.45;100.00
18167;BME280;9208;42.688;23.404;2023-03-11T06:41:39;93734.88;;;11.53;100.00
18167;BME280;9208;42.688;23.404;2023-03-11T06:44:04;93736.03;;;11.58;100.00
18167;BME280;9208;42.688;23.404;2023-03-11T06:46:30;93746.50;;;11.59;100.00
18167;BME280;9208;42.688;23.404;2023-03-11T06:48:56;93734.94;;;11.66;100.00
18167;BME280;9208;42.688;23.404;2023-03-11T06:51:21;93745.81;;;11.72;100.00
18167;BME280;9208;42.688;23.404;2023-03-11T06:53:48;93752.91;;;11.80;100.00
18167;BME280;9208;42.688;23.404;2023-03-11T06:56:14;93746.56;;;11.72;100.00
18167;BME280;9208;42.688;23.404;2023-03-11T06:58:41;93742.78;;;11.75;100.00
18167;BME280;9208;42.688;23.404;2023-03-11T07:01:09;93733.25;;;11.76;100.00
18167;BME280;9208;42.688;23.404;2023-03-11T07:03:35;93736.09;;;11.71;100.00
18167;BME280;9208;42.688;23.404;2023-03-11T07:06:01;93735.06;;;11.74;100.00
18167;BME280;9208;42.688;23.404;2023-03-11T07:08:27;93740.22;;;11.77;100.00
18167;BME280;9208;42.688;23.404;2023-03-11T07:13:32;93743.72;;;11.91;100.00
18167;BME280;9208;42.688;23.404;2023-03-11T07:16:11;93743.50;;;11.89;100.00
18167;BME280;9208;42.688;23.404;2023-03-11T07:18:36;93738.97;;;11.91;100.00
18167;BME280;9208;42.688;23.404;2023-03-11T07:21:03;93743.44;;;12.07;100.00
18167;BME280;9208;42.688;23.404;2023-03-11T07:23:29;93732.97;;;12.06;100.00
18167;BME280;9208;42.688;23.404;2023-03-11T07:25:55;93735.47;;;12.04;100.00
18167;BME280;9208;42.688;23.404;2023-03-11T07:28:22;93731.50;;;12.05;100.00
18167;BME280;9208;42.688;23.404;2023-03-11T07:30:47;93728.41;;;12.08;100.00
18167;BME280;9208;42.688;23.404;2023-03-11T07:33:13;93720.09;;;12.14;100.00
18167;BME280;9208;42.688;23.404;2023-03-11T07:35:39;93720.69;;;12.20;100.00
18167;BME280;9208;42.688;23.404;2023-03-11T07:38:04;93712.66;;;12.35;100.00
18167;BME280;9208;42.688;23.404;2023-03-11T07:40:30;93712.97;;;12.31;100.00
18167;BME280;9208;42.688;23.404;2023-03-11T07:42:58;93714.25;;;12.30;100.00
18167;BME280;9208;42.688;23.404;2023-03-11T07:45:24;93705.88;;;12.36;100.00
18167;BME280;9208;42.688;23.404;2023-03-11T07:47:49;93704.81;;;12.39;100.00
18167;BME280;9208;42.688;23.404;2023-03-11T07:50:15;93697.34;;;12.39;100.00
18167;BME280;9208;42.688;23.404;2023-03-11T07:52:44;93695.19;;;12.45;100.00
18167;BME280;9208;42.688;23.404;2023-03-11T07:55:09;93685.69;;;12.46;100.00
18167;BME280;9208;42.688;23.404;2023-03-11T07:57:35;93687.38;;;12.49;100.00
18167;BME280;9208;42.688;23.404;2023-03-11T08:00:01;93680.25;;;12.54;100.00
18167;BME280;9208;42.688;23.404;2023-03-11T08:02:26;93687.88;;;12.61;100.00
18167;BME280;9208;42.688;23.404;2023-03-11T08:04:52;93680.91;;;12.60;100.00
18167;BME280;9208;42.688;23.404;2023-03-11T08:07:17;93680.03;;;12.65;100.00
18167;BME280;9208;42.688;23.404;2023-03-11T08:09:44;93676.00;;;12.66;100.00
18167;BME280;9208;42.688;23.404;2023-03-11T08:12:10;93670.41;;;12.71;100.00
18167;BME280;9208;42.688;23.404;2023-03-11T08:14:35;93667.38;;;12.82;100.00
18167;BME280;9208;42.688;23.404;2023-03-11T08:17:01;93663.97;;;12.89;100.00
18167;BME280;9208;42.688;23.404;2023-03-11T08:19:26;93658.16;;;12.93;100.00
18167;BME280;9208;42.688;23.404;2023-03-11T08:21:51;93652.75;;;13.00;100.00
18167;BME280;9208;42.688;23.404;2023-03-11T08:24:17;93648.16;;;13.03;100.00
18167;BME280;9208;42.688;23.404;2023-03-11T08:26:42;93645.34;;;13.16;100.00
18167;BME280;9208;42.688;23.404;2023-03-11T08:29:08;93632.28;;;13.29;100.00
18167;BME280;9208;42.688;23.404;2023-03-11T08:31:34;93629.72;;;13.31;100.00
18167;BME280;9208;42.688;23.404;2023-03-11T08:34:03;93624.47;;;13.41;100.00
18167;BME280;9208;42.688;23.404;2023-03-11T08:36:29;93621.38;;;13.44;100.00
18167;BME280;9208;42.688;23.404;2023-03-11T08:38:54;93611.69;;;13.51;100.00
18167;BME280;9208;42.688;23.404;2023-03-11T08:41:20;93622.22;;;13.60;100.00
18167;BME280;9208;42.688;23.404;2023-03-11T08:43:45;93618.94;;;13.61;100.00
18167;BME280;9208;42.688;23.404;2023-03-11T08:46:25;93613.09;;;13.72;100.00
18167;BME280;9208;42.688;23.404;2023-03-11T08:48:52;93617.53;;;13.75;100.00
18167;BME280;9208;42.688;23.404;2023-03-11T08:51:17;93617.19;;;13.79;100.00
18167;BME280;9208;42.688;23.404;2023-03-11T08:53:44;93609.84;;;13.81;100.00
18167;BME280;9208;42.688;23.404;2023-03-11T08:56:09;93600.69;;;13.86;100.00
18167;BME280;9208;42.688;23.404;2023-03-11T08:58:35;93599.84;;;13.91;100.00
18167;BME280;9208;42.688;23.404;2023-03-11T09:01:00;93613.25;;;13.95;100.00
18167;BME280;9208;42.688;23.404;2023-03-11T09:03:26;93594.34;;;13.99;100.00
18167;BME280;9208;42.688;23.404;2023-03-11T09:06:00;93600.94;;;13.96;100.00
18167;BME280;9208;42.688;23.404;2023-03-11T09:08:26;93599.13;;;13.98;100.00
18167;BME280;9208;42.688;23.404;2023-03-11T09:10:52;93605.38;;;13.99;100.00
18167;BME280;9208;42.688;23.404;2023-03-11T09:13:18;93600.81;;;14.09;100.00
18167;BME280;9208;42.688;23.404;2023-03-11T09:15:43;93614.78;;;14.11;100.00
18167;BME280;9208;42.688;23.404;2023-03-11T09:18:13;93619.78;;;14.20;100.00
18167;BME280;9208;42.688;23.404;2023-03-11T09:20:39;93611.22;;;14.31;100.00
18167;BME280;9208;42.688;23.404;2023-03-11T09:23:10;93603.19;;;14.40;100.00
18167;BME280;9208;42.688;23.404;2023-03-11T09:25:36;93635.53;;;14.47;100.00
18167;BME280;9208;42.688;23.404;2023-03-11T09:28:04;93617.19;;;14.57;100.00
18167;BME280;9208;42.688;23.404;2023-03-11T09:30:30;93611.50;;;14.63;100.00
18167;BME280;9208;42.688;23.404;2023-03-11T09:32:56;93606.19;;;14.65;100.00
18167;BME280;9208;42.688;23.404;2023-03-11T09:35:22;93588.00;;;14.69;100.00
18167;BME280;9208;42.688;23.404;2023-03-11T09:37:47;93577.53;;;14.83;100.00
18167;BME280;9208;42.688;23.404;2023-03-11T09:40:21;93594.50;;;14.94;100.00
18167;BME280;9208;42.688;23.404;2023-03-11T09:43:22;93590.22;;;15.01;100.00
18167;BME280;9208;42.688;23.404;2023-03-11T09:45:57;93602.41;;;15.13;100.00
18167;BME280;9208;42.688;23.404;2023-03-11T09:48:37;93609.56;;;15.23;100.00
18167;BME280;9208;42.688;23.404;2023-03-11T09:51:15;93629.81;;;15.33;99.78
18167;BME280;9208;42.688;23.404;2023-03-11T09:53:44;93650.63;;;15.34;97.52
18167;BME280;9208;42.688;23.404;2023-03-11T09:56:12;93630.97;;;15.38;98.90
18167;BME280;9208;42.688;23.404;2023-03-11T09:58:50;93614.56;;;15.40;98.51
18167;BME280;9208;42.688;23.404;2023-03-11T10:01:24;93628.75;;;15.44;96.36
18167;BME280;9208;42.688;23.404;2023-03-11T10:03:54;93627.47;;;15.37;96.26
18167;BME280;9208;42.688;23.404;2023-03-11T10:06:27;93617.69;;;15.44;97.54
18167;BME280;9208;42.688;23.404;2023-03-11T10:25:20;93671.63;;;15.82;89.51
18167;BME280;9208;42.688;23.404;2023-03-11T10:27:54;93626.28;;;15.93;91.74
18167;BME280;9208;42.688;23.404;2023-03-11T10:33:16;93602.38;;;15.88;91.04
18167;BME280;9208;42.688;23.404;2023-03-11T10:35:49;93592.22;;;15.90;91.42
18167;BME280;9208;42.688;23.404;2023-03-11T10:38:25;93592.56;;;16.02;90.78
18167;BME280;9208;42.688;23.404;2023-03-11T10:40:59;93645.25;;;16.11;84.83
18167;BME280;9208;42.688;23.404;2023-03-11T10:43:30;93657.75;;;16.20;83.38
18167;BME280;9208;42.688;23.404;2023-03-11T10:45:58;93662.72;;;16.21;82.56
18167;BME280;9208;42.688;23.404;2023-03-11T10:48:24;93657.75;;;16.20;81.56
18167;BME280;9208;42.688;23.404;2023-03-11T10:50:57;93670.81;;;16.19;81.56
18167;BME280;9208;42.688;23.404;2023-03-11T10:53:25;93647.78;;;16.17;83.35
18167;BME280;9208;42.688;23.404;2023-03-11T10:55:56;93658.88;;;16.09;84.29
18167;BME280;9208;42.688;23.404;2023-03-11T10:58:29;93651.31;;;16.10;83.88
18167;BME280;9208;42.688;23.404;2023-03-11T11:01:14;93626.88;;;15.84;92.59
18167;BME280;9208;42.688;23.404;2023-03-11T11:03:44;93563.53;;;15.71;96.32
18167;BME280;9208;42.688;23.404;2023-03-11T11:06:21;93531.38;;;15.51;98.17
18167;BME280;9208;42.688;23.404;2023-03-11T11:09:03;93506.91;;;15.25;100.00
18167;BME280;9208;42.688;23.404;2023-03-11T11:11:31;93533.22;;;15.11;100.00
18167;BME280;9208;42.688;23.404;2023-03-11T11:13:59;93571.28;;;15.05;100.00
18167;BME280;9208;42.688;23.404;2023-03-11T11:16:25;93583.06;;;15.05;100.00
18167;BME280;9208;42.688;23.404;2023-03-11T11:19:07;93584.91;;;15.03;100.00
18167;BME280;9208;42.688;23.404;2023-03-11T11:21:39;93580.47;;;14.85;100.00
18167;BME280;9208;42.688;23.404;2023-03-11T11:24:29;93576.22;;;14.69;100.00
18167;BME280;9208;42.688;23.404;2023-03-11T11:27:16;93565.19;;;14.69;100.00
18167;BME280;9208;42.688;23.404;2023-03-11T11:29:43;93559.88;;;14.71;100.00
18167;BME280;9208;42.688;23.404;2023-03-11T11:35:13;93552.16;;;14.84;100.00
18167;BME280;9208;42.688;23.404;2023-03-11T11:37:46;93556.22;;;14.91;100.00
18167;BME280;9208;42.688;23.404;2023-03-11T11:42:49;93552.91;;;15.00;99.27
18167;BME280;9208;42.688;23.404;2023-03-11T11:45:25;93542.97;;;15.04;99.32
18167;BME280;9208;42.688;23.404;2023-03-11T11:47:56;93542.59;;;15.08;97.56
18167;BME280;9208;42.688;23.404;2023-03-11T11:50:30;93525.50;;;15.17;96.92
18167;BME280;9208;42.688;23.404;2023-03-11T11:53:22;93517.03;;;15.22;96.83
18167;BME280;9208;42.688;23.404;2023-03-11T11:55:50;93520.31;;;15.28;96.58
18167;BME280;9208;42.688;23.404;2023-03-11T11:58:20;93516.47;;;15.31;95.72
18167;BME280;9208;42.688;23.404;2023-03-11T12:09:13;93548.31;;;15.40;89.69
18167;BME280;9208;42.688;23.404;2023-03-11T12:11:46;93548.69;;;15.44;87.48
18167;BME280;9208;42.688;23.404;2023-03-11T12:21:49;93559.47;;;15.72;84.77
18167;BME280;9208;42.688;23.404;2023-03-11T12:26:52;93534.81;;;15.74;86.09
18167;BME280;9208;42.688;23.404;2023-03-11T12:29:38;93536.63;;;15.79;85.45
18167;BME280;9208;42.688;23.404;2023-03-11T12:32:06;93581.38;;;15.85;81.53
18167;BME280;9208;42.688;23.404;2023-03-11T12:34:34;93592.03;;;15.88;80.42
18167;BME280;9208;42.688;23.404;2023-03-11T12:37:01;93604.94;;;15.93;79.97
18167;BME280;9208;42.688;23.404;2023-03-11T12:39:31;93629.81;;;15.86;76.57
18167;BME280;9208;42.688;23.404;2023-03-11T12:44:36;93597.75;;;15.90;79.12
18167;BME280;9208;42.688;23.404;2023-03-11T12:49:40;93580.78;;;15.94;79.28
18167;BME280;9208;42.688;23.404;2023-03-11T12:55:52;93583.31;;;16.07;80.46
18167;BME280;9208;42.688;23.404;2023-03-11T12:57:59;93572.28;;;16.07;81.13
18167;BME280;9208;42.688;23.404;2023-03-11T13:06:14;93602.16;;;16.01;80.45
18167;BME280;9208;42.688;23.404;2023-03-11T13:08:48;93585.94;;;15.97;81.11
18167;BME280;9208;42.688;23.404;2023-03-11T13:16:46;93613.81;;;15.84;79.68
18167;BME280;9208;42.688;23.404;2023-03-11T13:21:58;93607.72;;;15.78;80.78
18167;BME280;9208;42.688;23.404;2023-03-11T13:27:17;93630.59;;;15.64;83.05
18167;BME280;9208;42.688;23.404;2023-03-11T13:34:02;93570.56;;;15.34;89.31
18167;BME280;9208;42.688;23.404;2023-03-11T13:41:30;93565.34;;;14.56;100.00
18167;BME280;9208;42.688;23.404;2023-03-11T13:44:09;93636.81;;;14.39;100.00
18167;BME280;9208;42.688;23.404;2023-03-11T13:46:37;93646.28;;;14.23;100.00
18167;BME280;9208;42.688;23.404;2023-03-11T13:52:00;93653.59;;;13.85;100.00
18167;BME280;9208;42.688;23.404;2023-03-11T13:57:00;93650.50;;;13.60;100.00
18167;BME280;9208;42.688;23.404;2023-03-11T13:59:31;93654.84;;;13.56;100.00
18167;BME280;9208;42.688;23.404;2023-03-11T14:02:20;93658.50;;;13.51;100.00
18167;BME280;9208;42.688;23.404;2023-03-11T14:04:50;93638.16;;;13.54;100.00
18167;BME280;9208;42.688;23.404;2023-03-11T14:07:24;93630.63;;;13.54;100.00
18167;BME280;9208;42.688;23.404;2023-03-11T14:09:50;93623.84;;;13.55;100.00
18167;BME280;9208;42.688;23.404;2023-03-11T14:12:15;93626.44;;;13.61;100.00
18167;BME280;9208;42.688;23.404;2023-03-11T14:14:46;93630.53;;;13.67;100.00
18167;BME280;9208;42.688;23.404;2023-03-11T14:17:17;93628.91;;;13.72;100.00
18167;BME280;9208;42.688;23.404;2023-03-11T14:20:09;93642.69;;;13.72;100.00
18167;BME280;9208;42.688;23.404;2023-03-11T14:22:36;93639.72;;;13.70;100.00
18167;BME280;9208;42.688;23.404;2023-03-11T14:25:08;93656.84;;;13.76;100.00
18167;BME280;9208;42.688;23.404;2023-03-11T14:27:36;93661.59;;;13.75;100.00
18167;BME280;9208;42.688;23.404;2023-03-11T14:30:04;93652.81;;;13.77;100.00